Time;durP1;ratioP1;P1;durP2;ratioP2;P2;SDS_P1;SDS_P2;PMS_P1;PMS_P2;Temp;Humidity;BMP_temperature;BMP_pressure;BME280_temperature;BME280_humidity;BME280_pressure;Samples;Min_cycle;Max_cycle;Signal;HPM_P1;HPM_P2
2022/03/13 00:00:11;;;;;;;21.05;15.23;;;8.20;97.20;;;;;;5028692;28;20041;-71
2022/03/13 00:02:37;;;;;;;;;;;8.30;97.30;;;;;;5032442;28;20158;-71
2022/03/13 00:05:06;;;;;;;23.05;14.98;;;8.30;97.50;;;;;;5064176;28;19971;-71
2022/03/13 00:07:38;;;;;;;20.08;14.02;;;8.30;97.20;;;;;;5063824;28;20045;-71
2022/03/13 00:10:05;;;;;;;21.15;13.43;;;8.30;97.20;;;;;;5064034;28;20037;-71
2022/03/13 00:12:32;;;;;;;23.67;14.75;;;8.30;97.20;;;;;;5063932;28;20134;-71
2022/03/13 00:15:01;;;;;;;21.63;14.77;;;8.30;97.30;;;;;;5030614;28;20052;-71
2022/03/13 00:17:28;;;;;;;21.80;14.75;;;8.40;97.20;;;;;;5014266;28;20118;-71
2022/03/13 00:19:56;;;;;;;23.45;15.98;;;8.40;97.20;;;;;;5030389;28;20534;-72
2022/03/13 00:22:22;;;;;;;22.77;15.20;;;8.40;97.20;;;;;;5030328;28;20103;-71
2022/03/13 00:24:48;;;;;;;21.45;14.35;;;8.40;97.10;;;;;;5063922;28;20073;-72
2022/03/13 00:27:14;;;;;;;21.92;15.52;;;8.30;97.20;;;;;;5063800;28;20079;-72
2022/03/13 00:29:41;;;;;;;19.60;14.25;;;8.30;97.20;;;;;;5028923;28;20099;-71
2022/03/13 00:32:08;;;;;;;21.48;14.95;;;8.40;97.20;;;;;;5034808;28;20412;-71
2022/03/13 00:34:34;;;;;;;23.23;14.90;;;8.30;97.20;;;;;;5034844;28;20456;-71
2022/03/13 00:37:00;;;;;;;21.30;14.68;;;8.30;97.20;;;;;;5067710;28;20053;-71
2022/03/13 00:39:26;;;;;;;20.52;14.73;;;8.30;97.30;;;;;;5034484;28;20112;-71
2022/03/13 00:41:53;;;;;;;20.92;15.05;;;8.30;97.30;;;;;;5067539;28;20497;-72
2022/03/13 00:44:19;;;;;;;20.77;13.75;;;8.30;97.30;;;;;;5043519;28;20485;-71
2022/03/13 00:46:45;;;;;;;22.50;14.63;;;8.20;97.30;;;;;;5054341;28;20041;-71
2022/03/13 00:49:11;;;;;;;19.80;14.05;;;8.20;97.40;;;;;;5054105;28;20102;-71
2022/03/13 00:51:37;;;;;;;22.52;15.32;;;8.20;97.50;;;;;;5054103;28;20120;-71
2022/03/13 00:54:04;;;;;;;20.05;14.85;;;8.20;97.50;;;;;;5054114;28;20136;-71
2022/03/13 00:56:30;;;;;;;20.80;14.68;;;8.20;97.50;;;;;;5054119;28;20098;-71
2022/03/13 00:58:56;;;;;;;20.40;14.20;;;8.30;97.50;;;;;;5054013;28;20052;-71
2022/03/13 01:01:22;;;;;;;21.15;13.95;;;8.20;97.40;;;;;;5051535;28;20059;-72
2022/03/13 01:03:52;;;;;;;19.45;13.32;;;8.20;97.50;;;;;;5053914;28;20045;-71
2022/03/13 01:06:19;;;;;;;;;;;8.20;97.60;;;;;;5037976;28;20037;-71
2022/03/13 01:08:46;;;;;;;24.42;15.10;;;8.30;97.70;;;;;;5055287;28;19916;-71
2022/03/13 01:11:13;;;;;;;18.48;13.38;;;8.30;97.50;;;;;;5053985;28;20056;-71
2022/03/13 01:13:40;;;;;;;19.40;14.20;;;8.30;97.50;;;;;;5055124;28;20069;-72
2022/03/13 01:16:18;;;;;;;20.52;13.82;;;8.40;97.40;;;;;;5037328;28;20045;-71
2022/03/13 01:18:56;;;;;;;20.85;13.57;;;8.40;97.30;;;;;;5053473;28;20057;-72
2022/03/13 01:21:22;;;;;;;22.80;13.90;;;8.50;97.10;;;;;;5053542;28;20184;-71
2022/03/13 01:24:00;;;;;;;19.88;13.20;;;8.50;97.00;;;;;;5053504;28;20083;-71
2022/03/13 01:26:25;;;;;;;19.42;12.95;;;8.50;96.90;;;;;;5054637;28;20251;-72
2022/03/13 01:28:56;;;;;;;19.40;13.52;;;8.50;96.90;;;;;;5053618;28;20131;-72
2022/03/13 01:31:32;;;;;;;19.40;13.15;;;8.50;96.80;;;;;;5051150;28;20091;-71
2022/03/13 01:34:00;;;;;;;21.48;14.20;;;8.50;96.70;;;;;;5054680;28;20190;-71
2022/03/13 01:36:27;;;;;;;21.02;12.95;;;8.50;96.70;;;;;;5053208;28;20045;-72
2022/03/13 01:38:55;;;;;;;20.38;13.85;;;8.50;97.10;;;;;;5053311;28;20044;-71
2022/03/13 01:41:23;;;;;;;22.10;14.85;;;8.50;96.80;;;;;;5052887;28;20047;-71
2022/03/13 01:43:49;;;;;;;20.80;13.43;;;8.50;96.90;;;;;;5053073;28;20037;-71
2022/03/13 01:46:15;;;;;;;20.40;13.88;;;8.40;96.90;;;;;;5087003;28;20041;-72
2022/03/13 01:48:52;;;;;;;16.58;12.52;;;8.40;97.00;;;;;;5053162;28;20044;-72
2022/03/13 01:51:18;;;;;;;19.30;12.70;;;8.40;97.00;;;;;;5054394;28;20183;-72
2022/03/13 01:53:44;;;;;;;19.52;13.15;;;8.50;96.90;;;;;;5053220;28;20131;-73
2022/03/13 01:56:10;;;;;;;20.65;13.98;;;8.50;96.80;;;;;;5053166;28;20434;-72
2022/03/13 01:58:36;;;;;;;17.92;12.85;;;8.50;96.60;;;;;;5086440;28;20574;-72
2022/03/13 02:01:02;;;;;;;21.20;13.60;;;8.60;96.50;;;;;;5084340;28;20049;-71
2022/03/13 02:03:28;;;;;;;18.63;13.00;;;8.70;96.30;;;;;;5086287;28;20260;-72
2022/03/13 02:05:54;;;;;;;20.05;13.50;;;8.70;96.20;;;;;;5086460;28;20531;-72
2022/03/13 02:08:22;;;;;;;17.83;12.93;;;8.70;96.10;;;;;;5052884;28;20128;-71
2022/03/13 02:10:49;;;;;;;16.90;12.88;;;8.70;96.10;;;;;;5053884;28;20044;-71
2022/03/13 02:13:17;;;;;;;19.75;13.10;;;8.70;96.10;;;;;;5086354;28;20067;-71
2022/03/13 02:15:44;;;;;;;15.95;12.57;;;8.70;96.00;;;;;;5052654;28;20127;-71
2022/03/13 02:18:10;;;;;;;19.20;13.85;;;8.70;96.00;;;;;;5052448;28;20057;-71
2022/03/13 02:20:45;;;;;;;18.13;14.45;;;8.70;96.00;;;;;;5069172;28;20059;-71
2022/03/13 02:23:23;;;;;;;18.48;13.50;;;8.70;96.00;;;;;;5052322;28;20128;-72
2022/03/13 02:25:57;;;;;;;24.30;14.55;;;8.60;96.20;;;;;;5052421;28;20128;-72
2022/03/13 02:28:25;;;;;;;20.15;14.90;;;8.50;96.20;;;;;;5085753;28;20036;-71
2022/03/13 02:30:53;;;;;;;19.77;13.93;;;8.50;96.40;;;;;;5051713;28;20039;-71
2022/03/13 02:33:21;;;;;;;21.15;14.68;;;8.40;96.40;;;;;;5052227;28;20049;-71
2022/03/13 02:35:58;;;;;;;19.98;13.63;;;8.40;96.60;;;;;;5052176;28;20044;-71
2022/03/13 02:38:25;;;;;;;20.80;14.60;;;8.30;96.70;;;;;;5053361;28;20560;-72
2022/03/13 02:40:53;;;;;;;18.13;13.38;;;8.30;96.70;;;;;;5053510;28;20051;-72
2022/03/13 02:43:20;;;;;;;18.98;13.80;;;8.20;96.80;;;;;;5051083;28;20483;-72
2022/03/13 02:45:46;;;;;;;21.02;13.57;;;8.30;96.90;;;;;;5033383;28;20037;-71
2022/03/13 02:48:12;;;;;;;20.98;12.73;;;8.30;96.80;;;;;;5048619;28;20493;-72
2022/03/13 02:50:40;;;;;;;18.45;13.25;;;8.30;96.90;;;;;;5033239;28;20100;-72
2022/03/13 02:53:07;;;;;;;18.70;13.80;;;8.30;96.80;;;;;;5032254;28;20490;-72
2022/03/13 02:55:33;;;;;;;17.35;13.20;;;8.30;96.80;;;;;;5048738;28;20204;-71
2022/03/13 02:57:59;;;;;;;20.33;13.80;;;8.40;96.70;;;;;;5032966;28;20037;-72
2022/03/13 03:00:46;;;;;;;19.02;13.82;;;8.40;96.70;;;;;;5046175;28;20052;-72
2022/03/13 03:03:13;;;;;;;19.67;12.60;;;8.40;96.70;;;;;;5065075;28;20122;-72
2022/03/13 03:05:39;;;;;;;15.07;11.25;;;8.50;96.60;;;;;;5048655;28;20090;-71
2022/03/13 03:08:05;;;;;;;20.10;13.35;;;8.50;96.50;;;;;;5031568;28;20037;-71
2022/03/13 03:10:32;;;;;;;19.67;12.25;;;8.50;96.40;;;;;;5031631;28;20071;-71
2022/03/13 03:12:58;;;;;;;19.27;13.07;;;8.50;96.40;;;;;;5014997;28;20050;-71
2022/03/13 03:15:25;;;;;;;18.95;12.80;;;8.60;96.40;;;;;;5032745;28;20049;-71
2022/03/13 03:17:52;;;;;;;18.60;11.77;;;8.60;96.30;;;;;;5064507;28;20049;-71
2022/03/13 03:20:19;;;;;;;18.35;12.60;;;8.60;96.30;;;;;;5048008;28;20056;-71
2022/03/13 03:22:45;;;;;;;17.88;12.88;;;8.60;96.20;;;;;;5028534;28;20125;-71
2022/03/13 03:25:11;;;;;;;17.95;13.20;;;8.60;96.20;;;;;;5032534;28;20050;-71
2022/03/13 03:27:39;;;;;;;19.05;11.95;;;8.60;96.20;;;;;;5048179;28;20045;-71
2022/03/13 03:30:06;;;;;;;18.05;12.63;;;8.60;96.20;;;;;;5028886;28;20626;-71
2022/03/13 03:32:32;;;;;;;19.58;13.85;;;8.50;96.20;;;;;;5031540;28;20046;-71
2022/03/13 03:34:58;;;;;;;18.48;12.65;;;8.50;96.20;;;;;;5031096;28;20076;-71
2022/03/13 03:37:25;;;;;;;19.08;14.27;;;8.50;96.20;;;;;;5064418;28;20049;-71
2022/03/13 03:39:51;;;;;;;18.05;12.98;;;8.40;96.20;;;;;;5047669;28;20044;-71
2022/03/13 03:42:16;;;;;;;18.23;13.32;;;8.40;96.30;;;;;;5064228;28;20049;-71
2022/03/13 03:44:42;;;;;;;21.90;14.88;;;8.30;96.30;;;;;;5044516;28;20052;-71
2022/03/13 03:47:08;;;;;;;19.60;13.73;;;8.20;96.40;;;;;;5050934;28;20045;-71
2022/03/13 03:49:34;;;;;;;20.73;14.55;;;8.20;96.50;;;;;;5084403;28;20040;-71
2022/03/13 03:52:00;;;;;;;21.27;14.70;;;8.10;96.60;;;;;;5051090;28;20040;-71
2022/03/13 03:54:26;;;;;;;22.48;14.50;;;8.00;96.80;;;;;;5050964;28;20060;-71
2022/03/13 03:56:52;;;;;;;20.90;14.35;;;8.00;96.90;;;;;;5084610;28;20060;-71
2022/03/13 03:59:20;;;;;;;22.23;15.70;;;7.90;97.00;;;;;;5048409;28;20067;-71
2022/03/13 04:01:45;;;;;;;23.40;15.02;;;7.80;97.10;;;;;;5067917;28;20440;-71
2022/03/13 04:04:11;;;;;;;20.88;15.43;;;7.80;97.20;;;;;;5083944;28;20033;-71
2022/03/13 04:06:38;;;;;;;20.08;15.10;;;7.70;97.30;;;;;;5084388;28;20044;-71
2022/03/13 04:09:09;;;;;;;20.90;14.55;;;7.70;97.40;;;;;;5050566;28;20037;-71
2022/03/13 04:11:36;;;;;;;22.83;15.48;;;7.70;97.50;;;;;;5051864;28;20393;-71
2022/03/13 04:14:03;;;;;;;21.75;15.07;;;7.70;97.60;;;;;;5050525;28;20045;-71
2022/03/13 04:16:28;;;;;;;19.73;13.68;;;7.60;97.70;;;;;;5084044;28;20044;-72
2022/03/13 04:18:54;;;;;;;20.90;14.13;;;7.60;97.80;;;;;;5084123;28;20111;-71
2022/03/13 04:21:22;;;;;;;21.27;14.07;;;7.60;98.10;;;;;;5050734;28;20124;-72
2022/03/13 04:23:48;;;;;;;20.23;14.25;;;7.60;98.10;;;;;;5051581;28;20106;-72
2022/03/13 04:26:15;;;;;;;21.38;14.65;;;7.60;98.10;;;;;;5084310;28;20295;-71
2022/03/13 04:28:41;;;;;;;21.00;14.93;;;7.60;98.10;;;;;;5050313;28;20037;-72
2022/03/13 04:31:08;;;;;;;20.83;16.05;;;7.60;98.20;;;;;;5048286;28;20455;-72
2022/03/13 04:33:35;;;;;;;23.52;15.50;;;7.60;98.40;;;;;;5050764;28;20045;-71
2022/03/13 04:36:03;;;;;;;20.48;11.60;;;7.50;98.40;;;;;;5050359;28;20037;-71
2022/03/13 04:38:29;;;;;;;25.27;16.48;;;7.50;98.50;;;;;;5050535;28;20390;-71
2022/03/13 04:40:56;;;;;;;22.67;14.48;;;7.50;98.40;;;;;;5067037;28;20037;-72
2022/03/13 04:43:22;;;;;;;19.60;14.88;;;7.50;98.40;;;;;;5050542;28;20049;-72
2022/03/13 04:45:49;;;;;;;19.20;14.23;;;7.50;98.40;;;;;;5050303;28;20033;-72
2022/03/13 04:48:17;;;;;;;22.10;14.65;;;7.50;98.40;;;;;;5051616;28;20041;-72
2022/03/13 04:50:43;;;;;;;20.63;14.40;;;7.50;98.40;;;;;;5051424;28;20037;-72
2022/03/13 04:53:09;;;;;;;22.27;15.50;;;7.50;98.30;;;;;;5050218;28;20181;-72
2022/03/13 04:55:35;;;;;;;18.67;14.40;;;7.50;98.30;;;;;;5051299;28;20512;-72
2022/03/13 04:58:01;;;;;;;22.17;15.20;;;7.50;98.20;;;;;;5050161;28;20052;-72
2022/03/13 05:00:27;;;;;;;21.45;16.02;;;7.60;98.10;;;;;;5047605;28;20124;-72
2022/03/13 05:02:56;;;;;;;23.13;14.65;;;7.60;98.00;;;;;;5050061;28;20045;-72
2022/03/13 05:05:22;;;;;;;21.05;14.52;;;7.60;98.00;;;;;;5050346;28;20044;-72
2022/03/13 05:07:51;;;;;;;20.33;14.02;;;7.60;97.90;;;;;;5033717;28;20068;-72
2022/03/13 05:10:20;;;;;;;22.23;14.90;;;7.60;97.80;;;;;;5051429;28;20116;-72
2022/03/13 05:12:47;;;;;;;23.17;13.85;;;7.60;97.60;;;;;;5050278;28;20044;-72
2022/03/13 05:15:13;;;;;;;22.75;13.80;;;7.70;97.50;;;;;;5049942;28;20051;-72
2022/03/13 05:17:39;;;;;;;20.33;12.85;;;7.70;97.40;;;;;;5053821;28;20080;-71
2022/03/13 05:20:06;;;;;;;19.42;12.48;;;7.70;97.30;;;;;;5053546;28;20053;-72
2022/03/13 05:22:32;;;;;;;22.00;14.20;;;7.80;97.20;;;;;;5053511;28;20497;-71
2022/03/13 05:24:58;;;;;;;17.23;13.45;;;7.80;97.10;;;;;;5053749;28;20037;-72
2022/03/13 05:27:23;;;;;;;19.52;12.95;;;7.80;97.10;;;;;;5054939;28;20044;-72
2022/03/13 05:29:49;;;;;;;22.02;14.45;;;7.70;97.00;;;;;;5034392;28;20040;-72
2022/03/13 05:32:15;;;;;;;19.55;13.95;;;7.70;96.90;;;;;;5053495;28;20127;-71
2022/03/13 05:34:41;;;;;;;22.48;13.98;;;7.70;96.90;;;;;;5053465;28;20040;-71
2022/03/13 05:37:08;;;;;;;19.83;14.35;;;7.80;96.90;;;;;;5053252;28;20045;-71
2022/03/13 05:39:35;;;;;;;22.00;14.40;;;7.70;96.80;;;;;;5054733;28;20098;-72
2022/03/13 05:42:04;;;;;;;18.70;13.80;;;7.70;96.80;;;;;;5054507;28;20045;-72
2022/03/13 05:44:30;;;;;;;19.02;13.73;;;7.60;96.70;;;;;;5036411;28;20068;-72
2022/03/13 05:46:56;;;;;;;19.55;14.15;;;7.60;96.70;;;;;;5054495;28;20075;-71
2022/03/13 05:49:22;;;;;;;20.52;14.02;;;7.60;96.70;;;;;;5053361;28;20329;-71
2022/03/13 05:51:48;;;;;;;20.13;14.18;;;7.60;96.70;;;;;;5069964;28;20397;-71
2022/03/13 05:54:13;;;;;;;20.85;13.80;;;7.70;96.70;;;;;;5069953;28;20482;-71
2022/03/13 05:56:39;;;;;;;19.05;14.23;;;7.60;96.70;;;;;;5054232;28;20044;-71
2022/03/13 05:59:07;;;;;;;20.33;14.10;;;7.60;96.80;;;;;;5069973;28;20174;-71
2022/03/13 06:01:33;;;;;;;22.42;15.40;;;7.60;97.00;;;;;;5067310;28;20048;-71
2022/03/13 06:04:00;;;;;;;22.40;14.52;;;7.60;96.70;;;;;;5052807;28;20041;-71
2022/03/13 06:06:25;;;;;;;20.17;13.95;;;7.60;96.80;;;;;;5052646;28;20037;-71
2022/03/13 06:08:51;;;;;;;21.88;14.85;;;7.60;96.80;;;;;;5054057;28;20041;-71
2022/03/13 06:11:17;;;;;;;20.65;14.38;;;7.60;96.80;;;;;;5052811;28;20037;-71
2022/03/13 06:13:43;;;;;;;19.85;14.65;;;7.60;96.70;;;;;;5053934;28;20120;-71
2022/03/13 06:16:08;;;;;;;20.35;13.73;;;7.60;96.70;;;;;;5053878;28;20128;-71
2022/03/13 06:18:36;;;;;;;22.77;14.35;;;7.60;96.60;;;;;;5053703;28;20132;-71
2022/03/13 06:21:05;;;;;;;19.85;13.68;;;7.60;96.50;;;;;;5086048;28;20049;-71
2022/03/13 06:23:30;;;;;;;18.85;14.27;;;7.60;96.50;;;;;;5085942;28;20083;-71
2022/03/13 06:25:59;;;;;;;20.92;15.20;;;7.60;96.40;;;;;;5085904;28;20084;-71
2022/03/13 06:28:26;;;;;;;20.10;14.73;;;7.60;96.40;;;;;;5085817;28;20047;-71
2022/03/13 06:30:55;;;;;;;22.25;14.40;;;7.60;96.40;;;;;;5049932;28;20171;-71
2022/03/13 06:33:22;;;;;;;20.70;13.83;;;7.60;96.40;;;;;;5068982;28;20044;-71
2022/03/13 06:35:48;;;;;;;20.27;14.10;;;7.50;96.40;;;;;;5085813;28;20037;-71
2022/03/13 06:38:14;;;;;;;19.65;14.63;;;7.50;96.40;;;;;;5052462;28;20489;-71
2022/03/13 06:40:39;;;;;;;21.58;14.43;;;7.40;96.50;;;;;;5068831;28;20396;-71
2022/03/13 06:43:06;;;;;;;20.35;13.63;;;7.40;96.50;;;;;;5053489;28;20037;-71
2022/03/13 06:45:32;;;;;;;17.05;13.13;;;7.40;96.60;;;;;;5072481;28;20072;-72
2022/03/13 06:47:58;;;;;;;20.90;15.13;;;7.40;96.70;;;;;;5052021;28;20075;-72
2022/03/13 06:50:24;;;;;;;17.05;13.48;;;7.30;96.60;;;;;;5051845;28;20041;-73
2022/03/13 06:52:52;;;;;;;19.52;13.57;;;7.40;96.60;;;;;;5053186;28;20045;-72
2022/03/13 06:55:20;;;;;;;19.95;13.30;;;7.40;96.50;;;;;;5052042;28;20052;-73
2022/03/13 06:57:46;;;;;;;19.58;14.15;;;7.40;96.40;;;;;;5053334;28;20056;-73
2022/03/13 07:00:12;;;;;;;20.08;14.55;;;7.40;96.30;;;;;;5049611;28;20048;-71
2022/03/13 07:02:38;;;;;;;22.23;13.68;;;7.40;96.20;;;;;;5052816;28;20397;-72
2022/03/13 07:05:05;;;;;;;18.48;13.00;;;7.40;96.20;;;;;;5051631;28;20049;-72
2022/03/13 07:07:30;;;;;;;18.27;13.23;;;7.50;96.20;;;;;;5053654;28;20041;-71
2022/03/13 07:09:57;;;;;;;19.42;13.43;;;7.50;96.10;;;;;;5053569;28;20047;-73
2022/03/13 07:12:24;;;;;;;17.25;13.00;;;7.50;96.10;;;;;;5051721;28;20091;-72
2022/03/13 07:14:50;;;;;;;18.73;13.48;;;7.50;96.00;;;;;;5051529;28;20127;-72
2022/03/13 07:17:17;;;;;;;19.17;13.00;;;7.50;96.00;;;;;;5051337;28;20133;-72
2022/03/13 07:19:45;;;;;;;18.67;12.70;;;7.60;96.00;;;;;;5051289;28;20060;-72
2022/03/13 07:22:13;;;;;;;20.38;13.10;;;7.60;96.00;;;;;;5052650;28;20472;-72
2022/03/13 07:24:39;;;;;;;21.00;13.13;;;7.60;96.00;;;;;;5051339;28;20056;-72
2022/03/13 07:27:05;;;;;;;19.23;13.05;;;7.60;96.00;;;;;;5051403;28;20048;-72
2022/03/13 07:29:32;;;;;;;20.35;13.30;;;7.60;95.90;;;;;;5046037;28;20059;-72
2022/03/13 07:31:58;;;;;;;19.05;13.05;;;7.60;95.80;;;;;;5050991;28;20045;-72
2022/03/13 07:34:25;;;;;;;18.75;13.90;;;7.60;95.70;;;;;;5034797;28;20053;-72
2022/03/13 07:36:51;;;;;;;17.48;13.10;;;7.60;95.70;;;;;;5051015;28;20077;-72
2022/03/13 07:39:18;;;;;;;17.70;13.18;;;7.60;95.70;;;;;;5050841;28;20088;-72
2022/03/13 07:41:45;;;;;;;20.08;13.10;;;7.60;95.60;;;;;;5051209;28;20259;-72
2022/03/13 07:44:11;;;;;;;17.67;13.50;;;7.60;95.50;;;;;;5050875;28;20041;-72
2022/03/13 07:46:37;;;;;;;18.67;12.85;;;7.70;95.40;;;;;;5052081;28;20386;-72
2022/03/13 07:49:03;;;;;;;21.45;13.23;;;7.70;95.30;;;;;;5034652;28;20028;-72
2022/03/13 07:51:29;;;;;;;20.45;13.38;;;7.70;95.00;;;;;;5067556;28;20520;-72
2022/03/13 07:53:55;;;;;;;19.70;12.90;;;7.70;94.90;;;;;;5052269;28;20041;-72
2022/03/13 07:56:23;;;;;;;17.90;12.93;;;7.70;94.70;;;;;;5084541;28;20052;-72
2022/03/13 07:58:49;;;;;;;18.55;12.55;;;7.70;94.40;;;;;;5051102;28;20447;-72
2022/03/13 08:01:15;;;;;;;17.65;13.23;;;7.70;94.40;;;;;;5081760;28;20045;-72
2022/03/13 08:03:44;;;;;;;18.33;12.07;;;7.70;94.40;;;;;;5067455;28;20041;-73
2022/03/13 08:06:10;;;;;;;18.40;12.88;;;7.80;94.50;;;;;;5082039;28;20045;-72
2022/03/13 08:08:36;;;;;;;22.35;13.57;;;7.80;94.40;;;;;;5066702;28;20508;-72
2022/03/13 08:11:03;;;;;;;19.70;12.68;;;7.90;94.30;;;;;;5051623;28;20485;-72
2022/03/13 08:13:28;;;;;;;17.70;13.32;;;7.90;94.20;;;;;;5051712;28;20041;-72
2022/03/13 08:15:54;;;;;;;18.20;12.85;;;8.00;94.10;;;;;;5033710;28;20053;-72
2022/03/13 08:18:21;;;;;;;17.38;13.68;;;8.10;94.20;;;;;;5050233;28;20122;-72
2022/03/13 08:20:47;;;;;;;17.98;12.90;;;8.10;94.20;;;;;;5050460;28;20525;-72
2022/03/13 08:23:12;;;;;;;18.27;13.55;;;8.20;94.20;;;;;;5050277;28;20131;-72
2022/03/13 08:25:38;;;;;;;17.67;12.25;;;8.30;94.20;;;;;;5050298;28;20170;-72
2022/03/13 08:28:06;;;;;;;15.23;11.48;;;8.40;93.90;;;;;;5050222;28;20120;-73
2022/03/13 08:30:33;;;;;;;16.60;12.48;;;8.60;93.80;;;;;;5047878;28;20501;-72
2022/03/13 08:32:59;;;;;;;19.60;13.07;;;8.80;93.30;;;;;;5050453;28;20040;-73
2022/03/13 08:35:25;;;;;;;19.67;12.85;;;8.90;93.30;;;;;;5050205;28;20525;-73
2022/03/13 08:37:52;;;;;;;17.42;12.75;;;9.40;92.80;;;;;;5050563;28;20040;-72
2022/03/13 08:40:19;;;;;;;18.45;12.35;;;9.80;91.90;;;;;;5034351;28;20507;-73
2022/03/13 08:42:44;;;;;;;18.25;12.52;;;9.80;90.60;;;;;;5051647;28;20041;-72
2022/03/13 08:45:11;;;;;;;19.00;13.05;;;9.80;90.10;;;;;;5050655;28;20060;-72
2022/03/13 08:47:38;;;;;;;16.90;11.95;;;9.70;88.10;;;;;;5050820;28;20048;-72
2022/03/13 08:50:05;;;;;;;17.13;12.07;;;9.60;86.40;;;;;;5051252;28;20033;-72
2022/03/13 08:52:32;;;;;;;16.02;12.15;;;9.50;87.70;;;;;;5055441;28;20127;-73
2022/03/13 08:54:58;;;;;;;16.73;11.65;;;9.50;86.80;;;;;;5053969;28;20477;-73
2022/03/13 08:57:24;;;;;;;18.23;12.93;;;9.40;87.40;;;;;;5053854;28;20102;-72
2022/03/13 08:59:50;;;;;;;16.33;10.70;;;9.50;86.90;;;;;;5051607;28;20037;-72
2022/03/13 09:02:19;;;;;;;20.10;13.60;;;9.60;87.50;;;;;;5053519;28;20099;-71
2022/03/13 09:04:45;;;;;;;16.80;12.23;;;9.90;87.70;;;;;;5055352;28;20032;-73
2022/03/13 09:07:10;;;;;;;17.23;13.38;;;10.20;86.40;;;;;;5055048;28;20052;-71
2022/03/13 09:09:36;;;;;;;16.08;12.13;;;10.40;84.90;;;;;;5054089;28;20044;-71
2022/03/13 09:12:02;;;;;;;16.60;11.25;;;10.80;86.20;;;;;;5053873;28;20052;-72
2022/03/13 09:14:28;;;;;;;18.17;12.68;;;11.20;85.00;;;;;;5053802;28;20045;-72
2022/03/13 09:16:54;;;;;;;15.57;11.65;;;11.50;84.20;;;;;;5053757;28;20037;-73
2022/03/13 09:19:20;;;;;;;17.40;12.25;;;11.80;81.80;;;;;;5053351;28;20059;-71
2022/03/13 09:21:47;;;;;;;16.20;12.38;;;12.40;79.80;;;;;;5053846;28;20053;-72
2022/03/13 09:24:12;;;;;;;18.83;13.05;;;13.10;78.10;;;;;;5036905;28;20099;-72
2022/03/13 09:26:39;;;;;;;14.80;11.77;;;13.60;77.00;;;;;;5054180;28;20045;-72
2022/03/13 09:29:07;;;;;;;17.13;12.00;;;14.10;71.70;;;;;;5054189;28;20037;-72
2022/03/13 09:31:34;;;;;;;17.42;13.20;;;14.40;71.40;;;;;;5051220;28;20033;-71
2022/03/13 09:33:59;;;;;;;17.00;12.43;;;14.80;73.00;;;;;;5037072;28;20075;-73
2022/03/13 09:36:25;;;;;;;15.57;12.30;;;15.00;66.90;;;;;;5053394;28;20083;-72
2022/03/13 09:38:52;;;;;;;14.88;11.85;;;15.10;68.20;;;;;;5034174;28;20175;-73
2022/03/13 09:41:20;;;;;;;19.88;13.88;;;15.40;67.30;;;;;;5053690;28;20049;-71
2022/03/13 09:43:46;;;;;;;15.02;11.15;;;15.50;68.30;;;;;;5053085;28;20045;-72
2022/03/13 09:46:13;;;;;;;17.17;13.07;;;15.80;66.10;;;;;;5053149;28;20072;-72
2022/03/13 09:48:38;;;;;;;16.65;12.15;;;16.00;64.20;;;;;;5036756;28;20475;-72
2022/03/13 09:51:06;;;;;;;16.35;12.13;;;16.30;66.20;;;;;;5053645;28;20128;-73
2022/03/13 09:53:34;;;;;;;17.42;13.35;;;16.60;65.80;;;;;;5053129;28;20045;-72
2022/03/13 09:56:01;;;;;;;16.92;10.70;;;16.70;64.40;;;;;;5053059;28;20041;-72
2022/03/13 09:58:29;;;;;;;14.98;11.88;;;16.40;61.70;;;;;;5053365;28;20048;-71
2022/03/13 10:00:56;;;;;;;16.15;12.45;;;15.90;61.50;;;;;;5051950;28;20127;-72
2022/03/13 10:03:21;;;;;;;16.38;13.02;;;15.60;63.40;;;;;;5052401;28;20041;-71
2022/03/13 10:05:49;;;;;;;15.85;12.02;;;15.50;62.80;;;;;;5052847;28;20532;-71
2022/03/13 10:08:16;;;;;;;15.90;13.20;;;15.40;62.60;;;;;;5052470;28;20078;-73
2022/03/13 10:10:47;;;;;;;16.10;13.07;;;15.50;63.20;;;;;;5086571;28;20397;-72
2022/03/13 10:13:16;;;;;;;17.48;11.65;;;15.50;62.90;;;;;;5036060;28;20551;-73
2022/03/13 10:15:47;;;;;;;16.45;13.02;;;15.70;62.40;;;;;;5086070;28;20041;-71
2022/03/13 10:18:19;;;;;;;15.70;12.75;;;16.20;61.70;;;;;;5068646;28;20051;-72
2022/03/13 10:20:46;;;;;;;16.05;13.13;;;16.70;59.90;;;;;;5086137;28;20041;-71
2022/03/13 10:23:19;;;;;;;19.77;13.32;;;16.90;60.10;;;;;;5035946;28;20041;-73
2022/03/13 10:25:47;;;;;;;14.85;12.45;;;16.70;59.20;;;;;;5086332;28;20079;-72
2022/03/13 10:28:21;;;;;;;17.27;12.57;;;16.50;60.40;;;;;;5085952;28;20631;-72
2022/03/13 10:30:59;;;;;;;16.40;13.20;;;16.50;60.00;;;;;;5050229;28;20067;-72
2022/03/13 10:33:26;;;;;;;16.30;12.60;;;16.80;62.50;;;;;;5052123;28;20040;-73
2022/03/13 10:36:10;;;;;;;18.52;14.82;;;17.20;62.60;;;;;;5052244;28;20497;-72
2022/03/13 10:38:36;;;;;;;18.38;13.45;;;17.80;62.40;;;;;;5053421;28;20357;-72
2022/03/13 10:41:12;;;;;;;16.50;13.48;;;18.40;60.60;;;;;;5052256;28;20052;-71
2022/03/13 10:43:54;;;;;;;17.15;14.20;;;18.80;59.60;;;;;;5053112;28;20501;-71
2022/03/13 10:46:30;;;;;;;16.75;13.45;;;19.10;58.60;;;;;;5053533;28;20052;-70
2022/03/13 10:48:58;;;;;;;15.52;13.20;;;19.40;56.90;;;;;;5052432;28;20068;-72
2022/03/13 10:51:36;;;;;;;16.23;12.70;;;19.30;55.90;;;;;;5035409;28;20041;-71
2022/03/13 10:54:04;;;;;;;15.30;12.05;;;19.00;56.90;;;;;;5052371;28;20044;-73
2022/03/13 10:56:30;;;;;;;17.00;13.05;;;19.20;57.10;;;;;;5052960;28;20118;-74
2022/03/13 10:58:57;;;;;;;16.83;14.00;;;19.30;56.50;;;;;;5053954;28;20045;-73
2022/03/13 11:01:25;;;;;;;16.23;14.15;;;19.10;57.10;;;;;;5050590;28;20111;-72
2022/03/13 11:03:55;;;;;;;18.10;13.50;;;18.80;57.40;;;;;;5052499;28;20079;-72
2022/03/13 11:06:22;;;;;;;;;;;18.10;56.50;;;;;;5054444;28;20045;-71
2022/03/13 11:08:53;;;;;;;16.20;13.60;;;17.40;57.60;;;;;;5053844;28;19921;-72
2022/03/13 11:11:20;;;;;;;16.85;13.75;;;17.00;59.50;;;;;;5035947;28;20465;-72
2022/03/13 11:13:52;;;;;;;17.17;13.77;;;16.70;60.40;;;;;;5053090;28;20060;-72
2022/03/13 11:16:29;;;;;;;16.63;14.32;;;16.50;60.60;;;;;;5053601;28;20045;-72
2022/03/13 11:18:57;;;;;;;21.02;15.07;;;16.30;60.40;;;;;;5052308;28;20088;-72
2022/03/13 11:21:25;;;;;;;16.85;13.13;;;16.20;61.50;;;;;;5053512;28;20468;-72
2022/03/13 11:23:51;;;;;;;16.77;13.70;;;16.50;62.80;;;;;;5053958;28;20092;-71
2022/03/13 11:26:20;;;;;;;15.68;13.13;;;17.50;62.00;;;;;;5054236;28;20432;-72
2022/03/13 11:28:49;;;;;;;15.73;13.27;;;18.40;62.00;;;;;;5052270;28;20428;-72
2022/03/13 11:31:30;;;;;;;18.08;13.18;;;19.00;60.00;;;;;;5051284;28;20041;-72
2022/03/13 11:34:21;;;;;;;17.33;13.65;;;19.30;58.40;;;;;;5053236;28;20084;-72
2022/03/13 11:36:51;;;;;;;18.05;13.50;;;19.30;57.30;;;;;;5052343;28;20118;-72
2022/03/13 11:39:26;;;;;;;16.55;12.55;;;18.80;57.30;;;;;;5054691;28;20045;-72
2022/03/13 11:41:52;;;;;;;17.00;13.63;;;18.20;55.20;;;;;;5051883;28;20045;-72
2022/03/13 11:44:23;;;;;;;15.70;12.65;;;17.40;56.00;;;;;;5051679;28;20087;-72
2022/03/13 11:46:51;;;;;;;15.40;12.55;;;16.80;57.60;;;;;;5085707;28;20523;-71
2022/03/13 11:49:31;;;;;;;15.23;11.85;;;16.40;58.90;;;;;;5051783;28;20563;-73
2022/03/13 11:52:12;;;;;;;21.25;13.80;;;16.10;59.20;;;;;;5052051;28;20610;-72
2022/03/13 11:54:53;;;;;;;18.52;13.85;;;15.80;60.20;;;;;;5052871;28;20041;-71
2022/03/13 11:57:20;;;;;;;15.02;11.82;;;15.70;60.70;;;;;;5053039;28;20045;-71
2022/03/13 12:00:06;;;;;;;16.15;11.95;;;15.80;61.70;;;;;;5052188;28;20238;-72
2022/03/13 12:02:41;;;;;;;17.80;13.77;;;15.90;62.30;;;;;;5051509;28;20044;-72
2022/03/13 12:05:25;;;;;;;16.95;12.52;;;16.20;62.20;;;;;;5052921;28;20037;-72
2022/03/13 12:08:08;;;;;;;17.75;12.07;;;16.10;60.50;;;;;;5085406;28;20198;-72
2022/03/13 12:10:42;;;;;;;16.15;12.02;;;15.90;60.50;;;;;;5068470;28;20048;-72
2022/03/13 12:13:12;;;;;;;17.38;12.65;;;15.90;60.90;;;;;;5052935;28;20041;-71
2022/03/13 12:15:41;;;;;;;;;;;16.30;62.70;;;;;;5053474;28;20095;-71
2022/03/13 12:18:32;;;;;;;17.15;12.35;;;16.80;61.60;;;;;;5085045;28;19959;-72
2022/03/13 12:21:08;;;;;;;16.45;11.90;;;17.40;59.70;;;;;;5085164;28;20098;-71
2022/03/13 12:23:36;;;;;;;16.17;12.18;;;18.10;59.20;;;;;;5084879;28;20045;-72
2022/03/13 12:26:14;;;;;;;14.07;11.48;;;18.60;59.40;;;;;;5057665;28;20033;-72
2022/03/13 12:28:40;;;;;;;14.18;10.23;;;19.00;58.10;;;;;;5091821;28;20090;-71
2022/03/13 12:31:06;;;;;;;13.77;10.57;;;19.10;56.90;;;;;;5057180;28;20485;-72
2022/03/13 12:33:33;;;;;;;12.13;10.48;;;19.20;56.30;;;;;;5059376;28;20099;-71
2022/03/13 12:36:02;;;;;;;12.95;11.18;;;19.40;57.10;;;;;;5058053;28;20105;-72
2022/03/13 12:38:31;;;;;;;12.18;9.77;;;19.40;56.40;;;;;;5059209;28;20041;-71